sensor_id;sensor_type;location;lat;lon;timestamp;P1;durP1;ratioP1;P2;durP2;ratioP2
41179;SDS011;26913;48.240;16.496;2023-03-01T00:00:10;40.87;;;24.20;;
41179;SDS011;26913;48.240;16.496;2023-03-01T00:02:36;36.23;;;22.30;;
41179;SDS011;26913;48.240;16.496;2023-03-01T00:05:02;38.43;;;23.20;;
41179;SDS011;26913;48.240;16.496;2023-03-01T00:07:28;37.17;;;22.90;;
41179;SDS011;26913;48.240;16.496;2023-03-01T00:09:53;40.33;;;22.70;;
41179;SDS011;26913;48.240;16.496;2023-03-01T00:12:19;40.43;;;24.30;;
41179;SDS011;26913;48.240;16.496;2023-03-01T00:14:45;43.30;;;23.70;;
41179;SDS011;26913;48.240;16.496;2023-03-01T00:17:10;37.90;;;22.80;;
41179;SDS011;26913;48.240;16.496;2023-03-01T00:19:36;40.03;;;22.67;;
41179;SDS011;26913;48.240;16.496;2023-03-01T00:22:02;36.47;;;21.37;;
41179;SDS011;26913;48.240;16.496;2023-03-01T00:24:27;38.37;;;23.73;;
41179;SDS011;26913;48.240;16.496;2023-03-01T00:26:53;41.03;;;23.43;;
41179;SDS011;26913;48.240;16.496;2023-03-01T00:29:21;38.67;;;23.17;;
41179;SDS011;26913;48.240;16.496;2023-03-01T00:31:47;39.63;;;23.20;;
41179;SDS011;26913;48.240;16.496;2023-03-01T00:34:12;37.77;;;23.10;;
41179;SDS011;26913;48.240;16.496;2023-03-01T00:36:38;35.33;;;22.10;;
41179;SDS011;26913;48.240;16.496;2023-03-01T00:39:04;36.70;;;23.87;;
41179;SDS011;26913;48.240;16.496;2023-03-01T00:41:31;43.67;;;24.37;;
41179;SDS011;26913;48.240;16.496;2023-03-01T00:43:56;43.83;;;24.43;;
41179;SDS011;26913;48.240;16.496;2023-03-01T00:46:25;45.10;;;23.07;;
41179;SDS011;26913;48.240;16.496;2023-03-01T00:48:51;43.20;;;23.00;;
41179;SDS011;26913;48.240;16.496;2023-03-01T00:51:18;41.67;;;24.40;;
41179;SDS011;26913;48.240;16.496;2023-03-01T00:53:45;37.77;;;23.93;;
41179;SDS011;26913;48.240;16.496;2023-03-01T00:56:11;35.67;;;23.30;;
41179;SDS011;26913;48.240;16.496;2023-03-01T00:58:38;38.43;;;22.90;;
41179;SDS011;26913;48.240;16.496;2023-03-01T01:01:07;39.83;;;24.20;;
41179;SDS011;26913;48.240;16.496;2023-03-01T01:06:18;40.63;;;24.43;;
41179;SDS011;26913;48.240;16.496;2023-03-01T01:08:49;39.57;;;23.53;;
41179;SDS011;26913;48.240;16.496;2023-03-01T01:11:15;42.97;;;24.60;;
41179;SDS011;26913;48.240;16.496;2023-03-01T01:13:41;41.67;;;24.77;;
41179;SDS011;26913;48.240;16.496;2023-03-01T01:16:08;42.13;;;23.87;;
41179;SDS011;26913;48.240;16.496;2023-03-01T01:18:34;40.70;;;24.50;;
41179;SDS011;26913;48.240;16.496;2023-03-01T01:21:03;39.00;;;23.47;;
41179;SDS011;26913;48.240;16.496;2023-03-01T01:23:30;41.50;;;24.80;;
41179;SDS011;26913;48.240;16.496;2023-03-01T01:25:55;40.77;;;25.13;;
41179;SDS011;26913;48.240;16.496;2023-03-01T01:28:21;43.10;;;24.80;;
41179;SDS011;26913;48.240;16.496;2023-03-01T01:30:46;38.10;;;24.33;;
41179;SDS011;26913;48.240;16.496;2023-03-01T01:33:12;41.47;;;24.07;;
41179;SDS011;26913;48.240;16.496;2023-03-01T01:35:37;43.93;;;24.77;;
41179;SDS011;26913;48.240;16.496;2023-03-01T01:38:03;39.27;;;23.57;;
41179;SDS011;26913;48.240;16.496;2023-03-01T01:40:29;41.67;;;25.33;;
41179;SDS011;26913;48.240;16.496;2023-03-01T01:42:54;42.40;;;25.40;;
41179;SDS011;26913;48.240;16.496;2023-03-01T01:45:31;45.60;;;25.87;;
41179;SDS011;26913;48.240;16.496;2023-03-01T01:47:59;48.87;;;26.00;;
41179;SDS011;26913;48.240;16.496;2023-03-01T01:50:27;40.40;;;25.10;;
41179;SDS011;26913;48.240;16.496;2023-03-01T01:55:28;41.10;;;23.73;;
41179;SDS011;26913;48.240;16.496;2023-03-01T01:57:57;38.90;;;23.37;;
41179;SDS011;26913;48.240;16.496;2023-03-01T02:00:26;38.53;;;24.10;;
41179;SDS011;26913;48.240;16.496;2023-03-01T02:02:56;39.20;;;23.97;;
41179;SDS011;26913;48.240;16.496;2023-03-01T02:08:02;44.63;;;24.90;;
41179;SDS011;26913;48.240;16.496;2023-03-01T02:10:28;42.00;;;26.13;;
41179;SDS011;26913;48.240;16.496;2023-03-01T02:12:54;41.70;;;25.47;;
41179;SDS011;26913;48.240;16.496;2023-03-01T02:15:21;40.97;;;24.17;;
41179;SDS011;26913;48.240;16.496;2023-03-01T02:17:48;40.60;;;24.90;;
41179;SDS011;26913;48.240;16.496;2023-03-01T02:22:58;42.17;;;24.27;;
41179;SDS011;26913;48.240;16.496;2023-03-01T02:25:40;43.03;;;24.77;;
41179;SDS011;26913;48.240;16.496;2023-03-01T02:30:44;44.05;;;25.17;;
41179;SDS011;26913;48.240;16.496;2023-03-01T02:33:31;39.43;;;24.10;;
41179;SDS011;26913;48.240;16.496;2023-03-01T02:36:02;42.43;;;24.60;;
41179;SDS011;26913;48.240;16.496;2023-03-01T02:38:30;39.43;;;24.33;;
41179;SDS011;26913;48.240;16.496;2023-03-01T02:40:56;41.97;;;24.30;;
41179;SDS011;26913;48.240;16.496;2023-03-01T02:43:22;38.93;;;24.63;;
41179;SDS011;26913;48.240;16.496;2023-03-01T02:45:50;40.70;;;25.17;;
41179;SDS011;26913;48.240;16.496;2023-03-01T02:48:17;44.67;;;25.67;;
41179;SDS011;26913;48.240;16.496;2023-03-01T02:54:20;45.03;;;26.47;;
41179;SDS011;26913;48.240;16.496;2023-03-01T02:56:45;40.23;;;24.37;;
41179;SDS011;26913;48.240;16.496;2023-03-01T02:59:13;45.67;;;26.40;;
41179;SDS011;26913;48.240;16.496;2023-03-01T03:01:39;47.77;;;26.90;;
41179;SDS011;26913;48.240;16.496;2023-03-01T03:04:09;41.37;;;24.30;;
41179;SDS011;26913;48.240;16.496;2023-03-01T03:06:36;41.43;;;25.17;;
41179;SDS011;26913;48.240;16.496;2023-03-01T03:09:02;42.90;;;25.87;;
41179;SDS011;26913;48.240;16.496;2023-03-01T03:11:28;43.57;;;24.90;;
41179;SDS011;26913;48.240;16.496;2023-03-01T03:13:55;42.47;;;25.80;;
41179;SDS011;26913;48.240;16.496;2023-03-01T03:16:21;45.47;;;26.03;;
41179;SDS011;26913;48.240;16.496;2023-03-01T03:18:47;41.23;;;24.50;;
41179;SDS011;26913;48.240;16.496;2023-03-01T03:21:13;44.13;;;26.23;;
41179;SDS011;26913;48.240;16.496;2023-03-01T03:23:39;39.70;;;24.10;;
41179;SDS011;26913;48.240;16.496;2023-03-01T03:26:05;43.27;;;25.60;;
41179;SDS011;26913;48.240;16.496;2023-03-01T03:28:31;41.93;;;26.53;;
41179;SDS011;26913;48.240;16.496;2023-03-01T03:30:58;43.40;;;26.17;;
41179;SDS011;26913;48.240;16.496;2023-03-01T03:33:28;43.57;;;25.90;;
41179;SDS011;26913;48.240;16.496;2023-03-01T03:35:54;44.13;;;25.67;;
41179;SDS011;26913;48.240;16.496;2023-03-01T03:38:20;42.43;;;25.77;;
41179;SDS011;26913;48.240;16.496;2023-03-01T03:40:50;45.33;;;27.00;;
41179;SDS011;26913;48.240;16.496;2023-03-01T03:43:21;40.07;;;25.43;;
41179;SDS011;26913;48.240;16.496;2023-03-01T03:45:49;43.57;;;26.93;;
41179;SDS011;26913;48.240;16.496;2023-03-01T03:48:15;42.03;;;24.77;;
41179;SDS011;26913;48.240;16.496;2023-03-01T03:50:41;44.03;;;25.73;;
41179;SDS011;26913;48.240;16.496;2023-03-01T03:53:12;43.83;;;25.70;;
41179;SDS011;26913;48.240;16.496;2023-03-01T03:55:38;42.33;;;24.97;;
41179;SDS011;26913;48.240;16.496;2023-03-01T03:58:04;42.17;;;26.40;;
41179;SDS011;26913;48.240;16.496;2023-03-01T04:00:38;38.50;;;24.13;;
41179;SDS011;26913;48.240;16.496;2023-03-01T04:03:08;38.60;;;26.00;;
41179;SDS011;26913;48.240;16.496;2023-03-01T04:05:35;44.87;;;27.13;;
41179;SDS011;26913;48.240;16.496;2023-03-01T04:08:02;42.90;;;26.77;;
41179;SDS011;26913;48.240;16.496;2023-03-01T04:10:28;47.27;;;27.00;;
41179;SDS011;26913;48.240;16.496;2023-03-01T04:12:55;45.07;;;25.53;;
41179;SDS011;26913;48.240;16.496;2023-03-01T04:15:24;41.27;;;25.73;;
41179;SDS011;26913;48.240;16.496;2023-03-01T04:17:50;44.43;;;26.57;;
41179;SDS011;26913;48.240;16.496;2023-03-01T04:20:19;45.50;;;26.70;;
41179;SDS011;26913;48.240;16.496;2023-03-01T04:22:52;47.73;;;26.10;;
41179;SDS011;26913;48.240;16.496;2023-03-01T04:25:22;45.03;;;26.03;;
41179;SDS011;26913;48.240;16.496;2023-03-01T04:27:47;42.50;;;25.30;;
41179;SDS011;26913;48.240;16.496;2023-03-01T04:30:13;43.00;;;26.67;;
41179;SDS011;26913;48.240;16.496;2023-03-01T04:32:39;44.23;;;26.93;;
41179;SDS011;26913;48.240;16.496;2023-03-01T04:35:05;43.33;;;27.20;;
41179;SDS011;26913;48.240;16.496;2023-03-01T04:37:30;42.30;;;26.07;;
41179;SDS011;26913;48.240;16.496;2023-03-01T04:39:56;48.60;;;28.17;;
41179;SDS011;26913;48.240;16.496;2023-03-01T04:42:22;49.90;;;27.50;;
41179;SDS011;26913;48.240;16.496;2023-03-01T04:44:48;43.27;;;26.97;;
41179;SDS011;26913;48.240;16.496;2023-03-01T04:47:16;43.00;;;25.90;;
41179;SDS011;26913;48.240;16.496;2023-03-01T04:49:42;42.93;;;26.13;;
41179;SDS011;26913;48.240;16.496;2023-03-01T04:52:07;45.90;;;26.53;;
41179;SDS011;26913;48.240;16.496;2023-03-01T04:54:35;45.27;;;27.23;;
41179;SDS011;26913;48.240;16.496;2023-03-01T04:57:01;46.10;;;27.17;;
41179;SDS011;26913;48.240;16.496;2023-03-01T04:59:27;47.93;;;27.23;;
41179;SDS011;26913;48.240;16.496;2023-03-01T05:01:54;49.37;;;27.57;;
41179;SDS011;26913;48.240;16.496;2023-03-01T05:04:21;41.90;;;25.73;;
41179;SDS011;26913;48.240;16.496;2023-03-01T05:06:49;47.93;;;26.20;;
41179;SDS011;26913;48.240;16.496;2023-03-01T05:09:15;48.67;;;25.60;;
41179;SDS011;26913;48.240;16.496;2023-03-01T05:11:41;41.50;;;25.10;;
41179;SDS011;26913;48.240;16.496;2023-03-01T05:14:08;47.73;;;26.90;;
41179;SDS011;26913;48.240;16.496;2023-03-01T05:16:34;43.77;;;26.53;;
41179;SDS011;26913;48.240;16.496;2023-03-01T05:19:01;45.40;;;26.57;;
41179;SDS011;26913;48.240;16.496;2023-03-01T05:21:36;44.10;;;26.33;;
41179;SDS011;26913;48.240;16.496;2023-03-01T05:24:23;44.80;;;25.60;;
41179;SDS011;26913;48.240;16.496;2023-03-01T05:26:49;42.80;;;25.83;;
41179;SDS011;26913;48.240;16.496;2023-03-01T05:29:17;46.97;;;25.77;;
41179;SDS011;26913;48.240;16.496;2023-03-01T05:31:51;47.83;;;26.23;;
41179;SDS011;26913;48.240;16.496;2023-03-01T05:34:24;43.23;;;26.47;;
41179;SDS011;26913;48.240;16.496;2023-03-01T05:36:53;46.20;;;25.20;;
41179;SDS011;26913;48.240;16.496;2023-03-01T05:39:20;45.17;;;25.57;;
41179;SDS011;26913;48.240;16.496;2023-03-01T05:41:47;45.67;;;25.73;;
41179;SDS011;26913;48.240;16.496;2023-03-01T05:44:14;37.37;;;25.30;;
41179;SDS011;26913;48.240;16.496;2023-03-01T05:46:39;46.23;;;26.27;;
41179;SDS011;26913;48.240;16.496;2023-03-01T05:49:05;45.03;;;26.33;;
41179;SDS011;26913;48.240;16.496;2023-03-01T05:51:30;46.47;;;27.07;;
41179;SDS011;26913;48.240;16.496;2023-03-01T05:53:57;43.70;;;25.07;;
41179;SDS011;26913;48.240;16.496;2023-03-01T05:56:22;43.10;;;26.73;;
41179;SDS011;26913;48.240;16.496;2023-03-01T05:58:48;42.23;;;25.47;;
41179;SDS011;26913;48.240;16.496;2023-03-01T06:01:14;43.60;;;24.97;;
41179;SDS011;26913;48.240;16.496;2023-03-01T06:03:40;42.87;;;25.97;;
41179;SDS011;26913;48.240;16.496;2023-03-01T06:06:06;43.57;;;24.40;;
41179;SDS011;26913;48.240;16.496;2023-03-01T06:08:31;45.60;;;25.00;;
41179;SDS011;26913;48.240;16.496;2023-03-01T06:10:57;42.87;;;23.73;;
41179;SDS011;26913;48.240;16.496;2023-03-01T06:13:23;47.23;;;27.03;;
41179;SDS011;26913;48.240;16.496;2023-03-01T06:15:49;45.67;;;25.67;;
41179;SDS011;26913;48.240;16.496;2023-03-01T06:18:14;41.37;;;24.53;;
41179;SDS011;26913;48.240;16.496;2023-03-01T06:20:40;44.17;;;26.33;;
41179;SDS011;26913;48.240;16.496;2023-03-01T06:23:05;42.27;;;25.93;;
41179;SDS011;26913;48.240;16.496;2023-03-01T06:25:31;44.53;;;26.07;;
41179;SDS011;26913;48.240;16.496;2023-03-01T06:27:57;45.13;;;25.73;;
41179;SDS011;26913;48.240;16.496;2023-03-01T06:30:23;43.20;;;25.03;;
41179;SDS011;26913;48.240;16.496;2023-03-01T06:32:49;46.03;;;26.00;;
41179;SDS011;26913;48.240;16.496;2023-03-01T06:35:15;43.67;;;23.93;;
41179;SDS011;26913;48.240;16.496;2023-03-01T06:37:45;39.00;;;24.03;;
41179;SDS011;26913;48.240;16.496;2023-03-01T06:40:11;42.03;;;25.07;;
41179;SDS011;26913;48.240;16.496;2023-03-01T06:42:39;41.55;;;26.77;;
41179;SDS011;26913;48.240;16.496;2023-03-01T06:45:06;41.43;;;23.17;;
41179;SDS011;26913;48.240;16.496;2023-03-01T06:47:32;47.53;;;25.37;;
41179;SDS011;26913;48.240;16.496;2023-03-01T06:49:58;41.30;;;25.33;;
41179;SDS011;26913;48.240;16.496;2023-03-01T06:52:24;39.03;;;24.00;;
41179;SDS011;26913;48.240;16.496;2023-03-01T06:54:50;49.17;;;25.45;;
41179;SDS011;26913;48.240;16.496;2023-03-01T06:57:16;37.43;;;23.70;;
41179;SDS011;26913;48.240;16.496;2023-03-01T06:59:41;44.43;;;25.90;;
41179;SDS011;26913;48.240;16.496;2023-03-01T07:02:10;43.28;;;25.75;;
41179;SDS011;26913;48.240;16.496;2023-03-01T07:04:37;44.93;;;25.30;;
41179;SDS011;26913;48.240;16.496;2023-03-01T07:07:02;52.00;;;25.87;;
41179;SDS011;26913;48.240;16.496;2023-03-01T07:09:28;53.80;;;25.47;;
41179;SDS011;26913;48.240;16.496;2023-03-01T07:11:53;48.95;;;24.90;;
41179;SDS011;26913;48.240;16.496;2023-03-01T07:14:19;47.63;;;26.58;;
41179;SDS011;26913;48.240;16.496;2023-03-01T07:16:45;48.88;;;26.08;;
41179;SDS011;26913;48.240;16.496;2023-03-01T07:19:10;43.00;;;26.20;;
41179;SDS011;26913;48.240;16.496;2023-03-01T07:21:36;47.97;;;25.92;;
41179;SDS011;26913;48.240;16.496;2023-03-01T07:24:05;42.67;;;24.93;;
41179;SDS011;26913;48.240;16.496;2023-03-01T07:26:31;41.23;;;25.10;;
41179;SDS011;26913;48.240;16.496;2023-03-01T07:28:58;40.05;;;24.58;;
41179;SDS011;26913;48.240;16.496;2023-03-01T07:31:24;39.30;;;24.00;;
41179;SDS011;26913;48.240;16.496;2023-03-01T07:33:52;41.97;;;24.35;;
41179;SDS011;26913;48.240;16.496;2023-03-01T07:36:18;40.30;;;24.13;;
41179;SDS011;26913;48.240;16.496;2023-03-01T07:38:44;44.08;;;25.67;;
41179;SDS011;26913;48.240;16.496;2023-03-01T07:41:09;43.70;;;25.73;;
41179;SDS011;26913;48.240;16.496;2023-03-01T07:43:35;43.90;;;24.92;;
41179;SDS011;26913;48.240;16.496;2023-03-01T07:46:00;44.28;;;24.67;;
41179;SDS011;26913;48.240;16.496;2023-03-01T07:48:27;42.40;;;25.80;;
41179;SDS011;26913;48.240;16.496;2023-03-01T07:50:53;43.20;;;24.38;;
41179;SDS011;26913;48.240;16.496;2023-03-01T07:53:18;42.20;;;25.25;;
41179;SDS011;26913;48.240;16.496;2023-03-01T07:55:44;38.85;;;23.90;;
41179;SDS011;26913;48.240;16.496;2023-03-01T07:58:09;40.85;;;23.98;;
41179;SDS011;26913;48.240;16.496;2023-03-01T08:00:35;40.05;;;24.27;;
41179;SDS011;26913;48.240;16.496;2023-03-01T08:03:00;44.85;;;26.58;;
41179;SDS011;26913;48.240;16.496;2023-03-01T08:05:26;39.72;;;25.75;;
41179;SDS011;26913;48.240;16.496;2023-03-01T08:07:52;41.00;;;25.77;;
41179;SDS011;26913;48.240;16.496;2023-03-01T08:10:19;39.15;;;25.02;;
41179;SDS011;26913;48.240;16.496;2023-03-01T08:12:44;46.08;;;24.90;;
41179;SDS011;26913;48.240;16.496;2023-03-01T08:15:10;40.35;;;24.30;;
41179;SDS011;26913;48.240;16.496;2023-03-01T08:17:36;37.30;;;23.40;;
41179;SDS011;26913;48.240;16.496;2023-03-01T08:20:01;43.35;;;24.15;;
41179;SDS011;26913;48.240;16.496;2023-03-01T08:22:28;46.70;;;26.92;;
41179;SDS011;26913;48.240;16.496;2023-03-01T08:24:54;42.65;;;25.67;;
41179;SDS011;26913;48.240;16.496;2023-03-01T08:27:21;42.80;;;26.05;;
41179;SDS011;26913;48.240;16.496;2023-03-01T08:29:46;42.20;;;24.88;;
41179;SDS011;26913;48.240;16.496;2023-03-01T08:32:12;44.45;;;25.10;;
41179;SDS011;26913;48.240;16.496;2023-03-01T08:34:37;40.60;;;24.67;;
41179;SDS011;26913;48.240;16.496;2023-03-01T08:37:03;48.20;;;25.65;;
41179;SDS011;26913;48.240;16.496;2023-03-01T08:39:31;41.35;;;25.33;;
41179;SDS011;26913;48.240;16.496;2023-03-01T08:41:57;44.47;;;24.23;;
41179;SDS011;26913;48.240;16.496;2023-03-01T08:44:22;39.22;;;24.00;;
41179;SDS011;26913;48.240;16.496;2023-03-01T08:46:48;44.40;;;25.45;;
41179;SDS011;26913;48.240;16.496;2023-03-01T08:49:16;41.75;;;25.67;;
41179;SDS011;26913;48.240;16.496;2023-03-01T08:51:43;40.03;;;25.58;;
41179;SDS011;26913;48.240;16.496;2023-03-01T08:54:10;41.13;;;24.92;;
41179;SDS011;26913;48.240;16.496;2023-03-01T08:56:37;39.30;;;25.10;;
41179;SDS011;26913;48.240;16.496;2023-03-01T08:59:02;40.38;;;24.88;;
41179;SDS011;26913;48.240;16.496;2023-03-01T09:01:28;42.88;;;25.83;;
41179;SDS011;26913;48.240;16.496;2023-03-01T09:03:53;39.55;;;25.25;;
41179;SDS011;26913;48.240;16.496;2023-03-01T09:06:19;37.45;;;23.92;;
41179;SDS011;26913;48.240;16.496;2023-03-01T09:08:45;35.17;;;23.95;;
41179;SDS011;26913;48.240;16.496;2023-03-01T09:11:13;35.42;;;24.52;;
41179;SDS011;26913;48.240;16.496;2023-03-01T09:13:42;35.55;;;24.23;;
41179;SDS011;26913;48.240;16.496;2023-03-01T09:16:12;33.35;;;23.15;;
41179;SDS011;26913;48.240;16.496;2023-03-01T09:18:38;35.38;;;24.27;;
41179;SDS011;26913;48.240;16.496;2023-03-01T09:21:08;36.85;;;24.10;;
41179;SDS011;26913;48.240;16.496;2023-03-01T09:23:35;41.20;;;24.00;;
41179;SDS011;26913;48.240;16.496;2023-03-01T09:26:03;34.38;;;24.42;;
41179;SDS011;26913;48.240;16.496;2023-03-01T09:28:29;33.95;;;23.35;;
41179;SDS011;26913;48.240;16.496;2023-03-01T09:30:57;34.53;;;23.60;;
41179;SDS011;26913;48.240;16.496;2023-03-01T09:33:24;35.90;;;22.83;;
41179;SDS011;26913;48.240;16.496;2023-03-01T09:35:55;39.25;;;21.35;;
41179;SDS011;26913;48.240;16.496;2023-03-01T09:38:21;34.65;;;23.67;;
41179;SDS011;26913;48.240;16.496;2023-03-01T09:40:47;34.00;;;22.50;;
41179;SDS011;26913;48.240;16.496;2023-03-01T09:43:59;32.67;;;20.90;;
41179;SDS011;26913;48.240;16.496;2023-03-01T09:46:05;33.50;;;21.15;;
41179;SDS011;26913;48.240;16.496;2023-03-01T09:48:37;33.95;;;21.85;;
41179;SDS011;26913;48.240;16.496;2023-03-01T09:51:09;32.47;;;22.83;;
41179;SDS011;26913;48.240;16.496;2023-03-01T09:53:38;32.08;;;22.20;;
41179;SDS011;26913;48.240;16.496;2023-03-01T09:56:05;32.50;;;21.95;;
41179;SDS011;26913;48.240;16.496;2023-03-01T10:06:26;33.83;;;20.00;;
41179;SDS011;26913;48.240;16.496;2023-03-01T10:08:58;33.70;;;19.90;;
41179;SDS011;26913;48.240;16.496;2023-03-01T10:11:31;31.77;;;20.95;;
41179;SDS011;26913;48.240;16.496;2023-03-01T10:17:04;28.13;;;20.40;;
41179;SDS011;26913;48.240;16.496;2023-03-01T10:19:44;33.60;;;20.80;;
41179;SDS011;26913;48.240;16.496;2023-03-01T10:24:39;27.30;;;19.95;;
41179;SDS011;26913;48.240;16.496;2023-03-01T10:27:06;28.40;;;19.85;;
41179;SDS011;26913;48.240;16.496;2023-03-01T10:29:37;24.83;;;18.70;;
41179;SDS011;26913;48.240;16.496;2023-03-01T10:32:11;26.50;;;19.13;;
41179;SDS011;26913;48.240;16.496;2023-03-01T10:34:37;27.85;;;17.98;;
41179;SDS011;26913;48.240;16.496;2023-03-01T10:40:01;24.88;;;18.98;;
41179;SDS011;26913;48.240;16.496;2023-03-01T10:42:49;37.95;;;19.05;;
41179;SDS011;26913;48.240;16.496;2023-03-01T10:45:16;22.17;;;18.33;;
41179;SDS011;26913;48.240;16.496;2023-03-01T10:50:44;25.08;;;18.52;;
41179;SDS011;26913;48.240;16.496;2023-03-01T11:00:50;28.02;;;18.52;;
41179;SDS011;26913;48.240;16.496;2023-03-01T11:03:19;21.75;;;17.02;;
41179;SDS011;26913;48.240;16.496;2023-03-01T11:05:57;19.92;;;15.60;;
41179;SDS011;26913;48.240;16.496;2023-03-01T11:13:32;22.30;;;15.45;;
41179;SDS011;26913;48.240;16.496;2023-03-01T11:16:03;14.60;;;12.15;;
41179;SDS011;26913;48.240;16.496;2023-03-01T11:18:31;17.77;;;13.23;;
41179;SDS011;26913;48.240;16.496;2023-03-01T11:20:57;12.90;;;10.98;;
41179;SDS011;26913;48.240;16.496;2023-03-01T11:23:24;20.02;;;14.40;;
41179;SDS011;26913;48.240;16.496;2023-03-01T11:26:01;18.65;;;14.48;;
41179;SDS011;26913;48.240;16.496;2023-03-01T11:28:29;16.55;;;13.98;;
41179;SDS011;26913;48.240;16.496;2023-03-01T11:31:08;17.77;;;12.55;;
41179;SDS011;26913;48.240;16.496;2023-03-01T11:33:44;14.30;;;11.55;;
41179;SDS011;26913;48.240;16.496;2023-03-01T11:38:47;17.20;;;12.88;;
41179;SDS011;26913;48.240;16.496;2023-03-01T11:56:41;14.90;;;12.68;;
41179;SDS011;26913;48.240;16.496;2023-03-01T11:59:24;16.63;;;12.88;;
41179;SDS011;26913;48.240;16.496;2023-03-01T12:12:28;17.13;;;14.75;;
41179;SDS011;26913;48.240;16.496;2023-03-01T12:17:40;15.43;;;13.48;;
41179;SDS011;26913;48.240;16.496;2023-03-01T12:28:42;17.95;;;14.77;;
41179;SDS011;26913;48.240;16.496;2023-03-01T12:45:04;17.35;;;14.48;;
41179;SDS011;26913;48.240;16.496;2023-03-01T12:52:51;27.33;;;16.00;;
41179;SDS011;26913;48.240;16.496;2023-03-01T13:02:53;22.98;;;16.10;;
41179;SDS011;26913;48.240;16.496;2023-03-01T13:06:07;20.75;;;14.75;;
41179;SDS011;26913;48.240;16.496;2023-03-01T13:10:46;18.83;;;14.90;;
41179;SDS011;26913;48.240;16.496;2023-03-01T13:13:21;23.10;;;16.40;;
41179;SDS011;26913;48.240;16.496;2023-03-01T13:15:48;22.17;;;16.17;;
41179;SDS011;26913;48.240;16.496;2023-03-01T13:20:48;23.63;;;16.40;;
41179;SDS011;26913;48.240;16.496;2023-03-01T13:38:58;18.73;;;15.52;;
41179;SDS011;26913;48.240;16.496;2023-03-01T13:46:46;20.58;;;16.15;;
41179;SDS011;26913;48.240;16.496;2023-03-01T13:49:14;23.02;;;17.77;;
41179;SDS011;26913;48.240;16.496;2023-03-01T13:51:48;23.35;;;16.42;;
41179;SDS011;26913;48.240;16.496;2023-03-01T13:54:25;29.48;;;17.27;;
41179;SDS011;26913;48.240;16.496;2023-03-01T13:56:53;30.33;;;19.05;;
41179;SDS011;26913;48.240;16.496;2023-03-01T13:59:20;23.67;;;17.95;;
41179;SDS011;26913;48.240;16.496;2023-03-01T14:01:56;20.10;;;17.20;;
41179;SDS011;26913;48.240;16.496;2023-03-01T14:04:30;21.17;;;17.88;;
41179;SDS011;26913;48.240;16.496;2023-03-01T14:07:10;23.25;;;16.67;;
41179;SDS011;26913;48.240;16.496;2023-03-01T14:09:37;24.95;;;17.98;;
41179;SDS011;26913;48.240;16.496;2023-03-01T14:20:24;24.00;;;17.42;;
41179;SDS011;26913;48.240;16.496;2023-03-01T14:22:55;29.17;;;17.30;;
41179;SDS011;26913;48.240;16.496;2023-03-01T14:25:24;27.98;;;18.65;;
41179;SDS011;26913;48.240;16.496;2023-03-01T14:28:00;29.38;;;17.60;;
41179;SDS011;26913;48.240;16.496;2023-03-01T14:30:30;22.83;;;17.45;;
41179;SDS011;26913;48.240;16.496;2023-03-01T14:32:59;22.48;;;17.38;;
41179;SDS011;26913;48.240;16.496;2023-03-01T14:35:29;37.00;;;19.63;;
41179;SDS011;26913;48.240;16.496;2023-03-01T14:37:56;22.83;;;17.10;;
41179;SDS011;26913;48.240;16.496;2023-03-01T14:40:29;25.65;;;15.50;;
41179;SDS011;26913;48.240;16.496;2023-03-01T14:43:00;22.92;;;16.73;;
41179;SDS011;26913;48.240;16.496;2023-03-01T14:45:27;24.83;;;17.65;;
41179;SDS011;26913;48.240;16.496;2023-03-01T14:47:55;20.60;;;16.50;;
41179;SDS011;26913;48.240;16.496;2023-03-01T14:50:25;34.08;;;18.95;;
41179;SDS011;26913;48.240;16.496;2023-03-01T14:52:54;23.25;;;16.98;;
41179;SDS011;26913;48.240;16.496;2023-03-01T14:55:25;23.52;;;17.85;;
41179;SDS011;26913;48.240;16.496;2023-03-01T14:57:57;31.83;;;17.25;;
41179;SDS011;26913;48.240;16.496;2023-03-01T15:00:27;28.15;;;17.77;;
41179;SDS011;26913;48.240;16.496;2023-03-01T15:02:55;20.52;;;15.70;;
41179;SDS011;26913;48.240;16.496;2023-03-01T15:05:32;26.40;;;16.70;;
41179;SDS011;26913;48.240;16.496;2023-03-01T15:07:58;27.80;;;15.73;;
41179;SDS011;26913;48.240;16.496;2023-03-01T15:10:27;25.70;;;15.15;;
41179;SDS011;26913;48.240;16.496;2023-03-01T15:12:54;32.17;;;16.85;;
41179;SDS011;26913;48.240;16.496;2023-03-01T15:18:03;26.30;;;15.48;;
41179;SDS011;26913;48.240;16.496;2023-03-01T15:20:38;21.30;;;14.55;;
41179;SDS011;26913;48.240;16.496;2023-03-01T15:23:04;27.25;;;15.55;;
41179;SDS011;26913;48.240;16.496;2023-03-01T15:25:31;35.17;;;16.05;;
41179;SDS011;26913;48.240;16.496;2023-03-01T15:27:57;26.63;;;16.08;;
41179;SDS011;26913;48.240;16.496;2023-03-01T15:30:41;26.77;;;16.20;;
41179;SDS011;26913;48.240;16.496;2023-03-01T15:33:25;23.17;;;16.05;;
41179;SDS011;26913;48.240;16.496;2023-03-01T15:35:58;27.65;;;16.13;;
41179;SDS011;26913;48.240;16.496;2023-03-01T15:38:36;20.40;;;15.00;;
41179;SDS011;26913;48.240;16.496;2023-03-01T15:41:31;24.33;;;16.25;;
41179;SDS011;26913;48.240;16.496;2023-03-01T15:43:59;21.13;;;14.65;;
41179;SDS011;26913;48.240;16.496;2023-03-01T15:46:26;24.85;;;16.02;;
41179;SDS011;26913;48.240;16.496;2023-03-01T15:49:03;23.75;;;16.33;;
41179;SDS011;26913;48.240;16.496;2023-03-01T15:51:34;22.13;;;15.73;;
41179;SDS011;26913;48.240;16.496;2023-03-01T15:54:03;24.38;;;16.10;;
41179;SDS011;26913;48.240;16.496;2023-03-01T15:56:35;29.05;;;16.02;;
41179;SDS011;26913;48.240;16.496;2023-03-01T15:59:01;43.85;;;18.00;;
41179;SDS011;26913;48.240;16.496;2023-03-01T16:01:27;28.75;;;16.33;;
41179;SDS011;26913;48.240;16.496;2023-03-01T16:03:53;30.60;;;18.27;;
41179;SDS011;26913;48.240;16.496;2023-03-01T16:06:19;24.20;;;16.10;;
41179;SDS011;26913;48.240;16.496;2023-03-01T16:08:45;34.20;;;23.52;;
41179;SDS011;26913;48.240;16.496;2023-03-01T16:11:14;36.15;;;25.42;;
41179;SDS011;26913;48.240;16.496;2023-03-01T16:13:41;33.97;;;21.73;;
41179;SDS011;26913;48.240;16.496;2023-03-01T16:16:08;28.35;;;17.67;;
41179;SDS011;26913;48.240;16.496;2023-03-01T16:18:37;27.35;;;17.90;;
41179;SDS011;26913;48.240;16.496;2023-03-01T16:21:03;32.50;;;19.95;;
41179;SDS011;26913;48.240;16.496;2023-03-01T16:23:30;29.13;;;18.00;;
41179;SDS011;26913;48.240;16.496;2023-03-01T16:25:58;26.95;;;17.08;;
41179;SDS011;26913;48.240;16.496;2023-03-01T16:28:25;24.83;;;16.67;;
41179;SDS011;26913;48.240;16.496;2023-03-01T16:30:51;28.00;;;16.98;;
41179;SDS011;26913;48.240;16.496;2023-03-01T16:33:17;29.88;;;17.40;;
41179;SDS011;26913;48.240;16.496;2023-03-01T16:35:42;24.38;;;15.55;;
41179;SDS011;26913;48.240;16.496;2023-03-01T16:38:10;25.60;;;16.95;;
41179;SDS011;26913;48.240;16.496;2023-03-01T16:40:35;25.73;;;16.58;;
41179;SDS011;26913;48.240;16.496;2023-03-01T16:43:01;30.70;;;17.52;;
41179;SDS011;26913;48.240;16.496;2023-03-01T16:45:28;31.67;;;17.85;;